HKML

Malindi Airport

Malindi, Kenya
METAR HKML 181200Z 09010KT 9999 FEW026 31/27 Q1009
Observed Flight Rules
Dec-18 @ 12:00 UTC (an hour ago) Visual Flight Rules
Wind Visibility Clouds
90° at 10 knots 10,000+ meters
  • Few at 2,600' AGL
Temperatures Readings
Current 31°C / 88°F
Dewpoint 27°C / 81°F
Humidity 79%
Altimeter 29.79" Hg
Pressure 1009 hPa
Elevation 23
METAR HKML 181200Z 09010KT 9999 FEW026 31/27 Q1009
Observed Flight Rules
Dec-18 @ 12:00 UTC
(an hour ago)
VFR
Wind Visibility
90° at 10 knots 10,000+ meters
Clouds
  • Few at 2,600' AGL
Temperature Dewpoint
31°C / 88°F 27°C / 81°F
Humidity Altimeter Pressure
79% 29.79" Hg 1009 hPa